Enter the Airport ICAO Code

Search by Airport or City

Current Weather

MMPR | Licenciado Gustavo Díaz Ordaz International Airport

Puerto Vallarta, Jalisco, Mexico

Last Update 39 Minutes Ago

Clear Sky

Temperature of 20 ºC

Light Winds from NorthEast

Temperature

20 ºC

Dew Point Temperature

19 ºC

Relative Humidity

94.01 %

Wind Direction

NorthEast (040º, Without Significant Variations)

Wind Velocity

4 km/h (02 kt)

Gusts

None

Visibility

Reduced to 12 Miles

Sea Level Pressure

29.93 inHg (Inches of Mercury)

Layers of Clouds

None

METAR MMPR 160743Z 04002KT 12SM SKC 20/19 A2993

Weather Forecast

MMPR | Licenciado Gustavo Díaz Ordaz International Airport

Puerto Vallarta, Jalisco, Mexico

Forecast valid for the next 28 Hours

From now on it is expected:

Partly Cloudy Sky

Calm Wind

In 10 hours it is expected the begining of:

Light to Moderate Winds from SouthWest

In 21 to 23 hours it is expected the begining of:

Light Winds from East

Maximum Temperature

27 ºC in 13 Hours

Minimum Temperature

16 ºC in 4 Hours

TAF MMPR 160424Z 1606/1712 00000KT P6SM SCT250 TX27/1621Z TN16/1612Z FM161800 22008KT P6SM SCT025 SCT250 BECMG 1705/1707 08004KT